Startpagina
METAR-TAF:

METAR-TAF

Vliegvelden :

London City Airport

Londen, Engeland

breedte: 51-30N, lengte: 000-03E, hoogte: 5 m

Actueel weer

Dit bericht is 10 minuten geleden gemaakt, om 02:20 UTC
Wind 9 kt uit het oosten
Temperatuur 14°C
Vochtigheid 67%
Druk 1017 hPa
Zicht 10 km of meer

METAR: EGLC 210220Z AUTO 09009KT 9999 NCD 14/08 Q1017

Tijdstip: 03:30 (02:30 UTC)

Verwachting

Dit bericht is 34 minuten geleden gemaakt, om 01:56 UTC
Verwachting geldig van 21 om 03 UTC tot 21 om 12 UTC
Wind 9 kt uit het oosten
Zicht 10 km of meer
geen wolken onder 1500 m en geen cumulonimbus

TAF: EGLC 210156Z 2103/2112 09009KT CAVOK

Waarnemingen en weersverwachtingen van meer dan 4000 vliegvelden (METAR en TAF).

De beschikbare stations zijn de gele en rode punten op de kaart.

Ga met uw muis naar het station om de naam te zien.

Klik dan om waarnemingen en weersverwachtingen te zien.

kaart wijzigen: klik op de groene knoppen met een zwart kruis om in te zoomen, op de groene knop met een streepje om uit te zoomen of op de groene pijlen voor aangrenzende kaarten.


METAR-TAF: